首页
METAR-TAF:

METAR-TAF

机场 :

厄斯特松德-福洛色島, 瑞典

纬度: 63-11N, 经度: 014-30E, 海拔: 376米

当前天气观测

该预报发布于38分钟前的15:50 UTC
风速9节,风向
温度 21°C
湿度 53%
气压 1013 hPa
能见度10公里或以上
多云层高于7600英尺, 塔状积云.

METAR: ESNZ 201550Z 18009KT 9999 BKN076TCU 21/11 Q1013

时间: 18:28 (16:28 UTC)

预报

该预报发布于1小时和34分钟前的14:54 UTC
预报有效从20日的 15点(UTC)到 20日的 20点(UTC)
风速10节,风向
能见度10公里或以上
散云层高于4000英尺
短暂存在
从 20日的 15点(UTC)到 20日的 19点(UTC)
多云层高于4000英尺, 积雨云.
阵雨
几率 40%
从 20日的 15点(UTC)到 20日的 17点(UTC)
雷暴

TAF: ESNZ 201454Z 2015/2020 18010KT 9999 SCT040 TEMPO 2015/2019 SHRA BKN040CB PROB40 2015/2017 TS

超过4000个机场的气象观测和天气预报(METAR&TAF报告)。

可查询的气象台以黄色和红色小点在地图上表示。

将鼠标移到小点上方,可查看气象台名称。

然后点击查看天气观测和预报。

如需切换地图:点击带黑十字的绿色按钮放大地图;点击带横线的绿色按钮缩小地图;或者点击绿色箭头查看邻近地区的地图。


METAR-TAF: